world map with ZNE marked

ZNE - Airport

This information may not be accurate or current and is not valid for navigation or flight planning. No warranty of fitness for any purpose is made or implied.

flag of Western Australiaflag of Australia

Donate via PayPal

Additional information is available on the NEW Great Circle Mapper

Location
City:  Newman, Western Australia, Australia
ICAO / IATA:YNWN / ZNE

Details
Type:Airport (Aerodrome, Airfield)
Latitude:23°25'04"S (-23.417777)
Longitude:119°48'10"E (119.802778)
Datum:WGS 1984
Elevation:1724 ft (525 m)
Runways:1
Longest:6798 × 98 ft (2072 × 30 m)

Time
Timezone:UTC+8 (DST+10)
Local Time:

Weather
METAR:YNWN  110600Z AUTO 22008G18KT 180V250 9999 // NCD 41/01 Q1007

Related Locations
Nearby:
Farthest:AXA: 12030 mi / 19360 km
The Valley [Clayton J. Lloyd Intl (Anguilla Wallblake Airport)], Anguilla, AI

Find:

   beyond  
but within

Other Information
Maps:
Sources:

  


 


Great Circle Mapper   Great Circle Mapper
Great Circle Mapper FAQ   Great Circle Mapper FAQ
  Karl's Home Page
KLSē   KLSē Home
   GC on Facebook
Airlines of the World   Airlines of the World
Donate via PayPal


Copyright © 2004-2018, Karl L. Swartz. All rights reserved.
All trademarks mentioned herein belong to their respective owners.

Please see credits for attribution and copyright information.

Karl Swartz <karl@kls2.com>
  Powered by FreeBSD
Valid HTML 4.01!
Labeled with ICRA
hCard Microformat
Geo Microformat